createdAt,value
2023-03-23T15:57:58.374Z,99124.47
2023-03-23T16:00:27.800Z,99117.06
2023-03-23T16:03:00.835Z,99117.31
2023-03-23T16:05:28.068Z,99122.81
2023-03-23T16:07:54.732Z,99121.66
2023-03-23T16:10:23.908Z,99124.53
2023-03-23T16:12:50.364Z,99111.00
2023-03-23T16:15:17.524Z,99108.47
2023-03-23T16:17:44.888Z,99125.19
2023-03-23T16:20:13.067Z,99109.78
2023-03-23T16:22:39.491Z,99114.50
2023-03-23T16:25:07.341Z,99105.66
2023-03-23T16:27:33.805Z,99113.88
2023-03-23T16:30:04.510Z,99132.84
2023-03-23T16:32:31.127Z,99140.88
2023-03-23T16:34:57.539Z,99146.22
2023-03-23T16:37:23.917Z,99150.16
2023-03-23T16:39:50.450Z,99152.19
2023-03-23T16:42:16.940Z,99162.53
2023-03-23T16:44:43.314Z,99166.03
2023-03-23T16:47:09.721Z,99163.13
2023-03-23T16:49:36.893Z,99139.13
2023-03-23T16:52:03.261Z,99162.59
2023-03-23T16:54:29.703Z,99158.06
2023-03-23T16:56:56.168Z,99165.91
2023-03-23T16:59:22.574Z,99150.31
2023-03-23T17:01:49.123Z,99147.41
2023-03-23T17:04:15.743Z,99154.84
2023-03-23T17:06:43.936Z,99158.16
2023-03-23T17:09:10.330Z,99158.97
2023-03-23T17:11:37.042Z,99155.28
2023-03-23T17:14:03.929Z,99175.03
2023-03-23T17:16:30.350Z,99167.22
2023-03-23T17:18:56.758Z,99169.28
2023-03-23T17:21:25.568Z,99192.31
2023-03-23T17:23:52.366Z,99191.50
2023-03-23T17:26:18.715Z,99193.53
2023-03-23T17:28:45.109Z,99178.75
2023-03-23T17:31:11.585Z,99183.72
2023-03-23T17:33:37.934Z,99180.81
2023-03-23T17:36:04.635Z,99176.91
2023-03-23T17:38:31.975Z,99179.56
2023-03-23T17:40:59.513Z,99182.44
2023-03-23T17:43:26.055Z,99191.28
2023-03-23T17:45:55.574Z,99182.44
2023-03-23T17:48:22.966Z,99188.19
2023-03-23T17:50:49.804Z,99179.97
2023-03-23T17:53:18.443Z,99173.81
2023-03-23T17:55:45.275Z,99176.69
2023-03-23T17:58:12.136Z,99176.25
2023-03-23T18:00:38.806Z,99178.94
2023-03-23T18:03:05.233Z,99186.56
2023-03-23T18:05:32.257Z,99180.38
2023-03-23T18:08:00.722Z,99189.19
2023-03-23T18:10:27.098Z,99191.03
2023-03-23T18:12:53.517Z,99199.28
2023-03-23T18:15:20.086Z,99193.09
2023-03-23T18:17:48.177Z,99202.13
2023-03-23T18:20:14.824Z,99201.09
2023-03-23T18:22:41.265Z,99207.06
2023-03-23T18:25:07.902Z,99205.38
2023-03-23T18:27:34.969Z,99206.00
2023-03-23T18:30:02.903Z,99203.91
2023-03-23T18:32:29.413Z,99200.84
2023-03-23T18:34:56.038Z,99194.69
2023-03-23T18:37:22.390Z,99193.03
2023-03-23T18:39:48.751Z,99191.56
2023-03-23T18:42:15.333Z,99190.75
2023-03-23T18:44:41.745Z,99188.91
2023-03-23T18:47:08.161Z,99184.59
2023-03-23T18:49:34.624Z,99187.66
2023-03-23T18:52:01.078Z,99194.22
2023-03-23T18:54:28.376Z,99195.88
2023-03-23T18:56:55.657Z,99192.78
2023-03-23T18:59:30.207Z,99192.56
2023-03-23T19:01:57.608Z,99193.78
2023-03-23T19:04:24.335Z,99202.38
2023-03-23T19:06:50.717Z,99198.72
2023-03-23T19:09:18.824Z,99212.22
2023-03-23T19:11:47.169Z,99205.69
2023-03-23T19:14:13.768Z,99209.16
2023-03-23T19:16:41.380Z,99199.13
2023-03-23T19:19:08.347Z,99199.13
2023-03-23T19:21:35.150Z,99198.28
2023-03-23T19:24:02.208Z,99192.53
2023-03-23T19:26:37.576Z,99203.19
2023-03-23T19:31:35.554Z,99196.16
2023-03-23T19:34:02.010Z,99196.09
2023-03-23T19:36:28.397Z,99200.00
2023-03-23T19:38:54.930Z,99191.56
2023-03-23T19:41:21.839Z,99193.81
2023-03-23T19:43:48.208Z,99179.03
2023-03-23T19:46:14.783Z,99189.28
2023-03-23T19:48:41.997Z,99187.00
2023-03-23T19:51:09.323Z,99180.00
2023-03-23T19:53:36.382Z,99184.13
2023-03-23T19:56:03.736Z,99195.41
2023-03-23T19:58:32.362Z,99191.47
2023-03-23T20:01:00.623Z,99198.59
2023-03-23T20:03:26.984Z,99198.34
2023-03-23T20:06:01.136Z,99199.38
2023-03-23T20:08:27.671Z,99195.66
2023-03-23T20:11:02.997Z,99197.13
2023-03-23T20:13:29.344Z,99202.63
2023-03-23T20:15:58.725Z,99195.84
2023-03-23T20:18:27.488Z,99195.22
2023-03-23T20:21:07.437Z,99199.91
2023-03-23T20:23:35.008Z,99196.63
2023-03-23T20:26:06.685Z,99201.13
2023-03-23T20:28:33.168Z,99196.63
2023-03-23T20:31:20.967Z,99189.03
2023-03-23T20:33:59.674Z,99206.22
2023-03-23T20:36:29.756Z,99203.63
2023-03-23T20:38:57.325Z,99198.34
2023-03-23T20:41:24.253Z,99204.06
2023-03-23T20:43:50.819Z,99209.03
2023-03-23T20:46:17.629Z,99216.22
2023-03-23T20:48:44.061Z,99216.47
2023-03-23T20:51:11.292Z,99213.25
2023-03-23T20:53:39.490Z,99212.88
2023-03-23T20:56:07.307Z,99214.09
2023-03-23T20:58:34.329Z,99206.13
2023-03-23T21:01:02.782Z,99203.44
2023-03-23T21:03:32.651Z,99202.44
2023-03-23T21:05:59.216Z,99205.13
2023-03-23T21:08:25.582Z,99199.38
2023-03-23T21:10:51.987Z,99204.31
2023-03-23T21:13:18.672Z,99192.47
2023-03-23T21:15:45.678Z,99193.66
2023-03-23T21:18:12.428Z,99191.81
2023-03-23T21:20:39.240Z,99195.28
2023-03-23T21:23:05.835Z,99189.59
2023-03-23T21:25:35.350Z,99185.06
2023-03-23T21:28:02.888Z,99183.84
2023-03-23T21:30:29.772Z,99178.09
2023-03-23T21:32:56.437Z,99184.25
2023-03-23T21:35:22.937Z,99180.56
2023-03-23T21:37:49.899Z,99169.50
2023-03-23T21:40:17.581Z,99162.94
2023-03-23T21:42:45.135Z,99166.88
2023-03-23T21:45:18.254Z,99160.09
2023-03-23T21:47:44.935Z,99160.09
2023-03-23T21:50:11.880Z,99163.59
2023-03-23T21:52:41.923Z,99157.66
2023-03-23T21:55:08.398Z,99150.06
2023-03-23T21:57:35.029Z,99152.75
2023-03-23T22:00:01.458Z,99152.75
2023-03-23T22:02:28.828Z,99147.41
2023-03-23T22:04:56.596Z,99145.78
2023-03-23T22:07:23.915Z,99146.19
2023-03-23T22:09:50.995Z,99143.13
2023-03-23T22:12:17.643Z,99145.38
2023-03-23T22:14:44.544Z,99138.41
2023-03-23T22:17:11.207Z,99135.13
2023-03-23T22:19:37.591Z,99139.66
2023-03-23T22:22:04.130Z,99133.09
2023-03-23T22:24:30.704Z,99133.28
2023-03-23T22:26:57.061Z,99133.09
2023-03-23T22:29:23.459Z,99126.09
2023-03-23T22:31:50.307Z,99122.41
2023-03-23T22:34:16.827Z,99116.03
2023-03-23T22:36:43.222Z,99125.50
2023-03-23T22:39:10.434Z,99114.41
2023-03-23T22:41:39.948Z,99121.38
2023-03-23T22:44:12.538Z,99115.41
2023-03-23T22:46:39.920Z,99110.06
2023-03-23T22:49:06.263Z,99114.59
2023-03-23T22:51:32.673Z,99103.91
2023-03-23T22:53:59.090Z,99102.88
2023-03-23T22:56:25.642Z,99099.81
2023-03-23T22:58:52.065Z,99088.72
2023-03-23T23:01:21.463Z,99092.03
2023-03-23T23:03:48.540Z,99085.25
2023-03-23T23:06:17.444Z,99088.53
2023-03-23T23:08:44.794Z,99083.38
2023-03-23T23:11:13.884Z,99085.00
2023-03-23T23:13:41.289Z,99079.03
2023-03-23T23:16:09.401Z,99073.44
2023-03-23T23:18:36.530Z,99072.00
2023-03-23T23:21:06.580Z,99066.06
2023-03-23T23:23:34.421Z,99068.09
2023-03-23T23:26:01.410Z,99063.81
2023-03-23T23:28:28.581Z,99067.88
2023-03-23T23:30:56.296Z,99056.22
2023-03-23T23:33:23.273Z,99061.94
2023-03-23T23:35:50.138Z,99051.69
2023-03-23T23:38:16.893Z,99053.94
2023-03-23T23:40:46.013Z,99057.63
2023-03-23T23:43:13.736Z,99058.03
2023-03-23T23:45:40.276Z,99047.75
2023-03-23T23:48:07.194Z,99040.56
2023-03-23T23:50:34.362Z,99044.06
2023-03-23T23:53:00.907Z,99036.47
2023-03-23T23:55:27.858Z,99034.00
2023-03-23T23:57:54.553Z,99040.38
